Time;durP1;ratioP1;P1;durP2;ratioP2;P2;SDS_P1;SDS_P2;PMS_P1;PMS_P2;Temp;Humidity;BMP_temperature;BMP_pressure;BME280_temperature;BME280_humidity;BME280_pressure;Samples;Min_cycle;Max_cycle;Signal;HPM_P1;HPM_P2
2022/12/01 00:00:15;;;;;;;;;;;;;;;9.83;42.92;99251.72;4501880;31;19978;-87
2022/12/01 00:02:40;;;;;;;;;;;;;;;9.82;42.92;99257.94;4503024;31;19972;-87
2022/12/01 00:05:06;;;;;;;;;;;;;;;9.81;42.78;99259.72;4502890;31;20406;-87
2022/12/01 00:07:31;;;;;;;;;;;;;;;9.79;43.18;99261.56;4503012;31;20378;-87
2022/12/01 00:12:42;;;;;;;;;;;;;;;9.73;43.45;99268.84;4503012;31;19998;-87
2022/12/01 00:15:08;;;;;;;;;;;;;;;9.67;43.51;99259.44;4488749;31;20003;-87
2022/12/01 00:17:33;;;;;;;;;;;;;;;9.55;43.78;99265.25;4502909;31;20008;-87
2022/12/01 00:19:58;;;;;;;;;;;;;;;9.52;43.92;99268.00;4488585;31;20012;-87
2022/12/01 00:22:23;;;;;;;;;;;;;;;9.44;43.84;99270.94;4502873;31;20255;-87
2022/12/01 00:24:49;;;;;;;;;;;;;;;9.41;43.86;99273.72;4502852;31;19979;-88
2022/12/01 00:27:14;;;;;;;;;;;;;;;9.34;43.96;99274.88;4502834;31;20011;-88
2022/12/01 00:29:39;;;;;;;;;;;;;;;9.29;44.13;99282.97;4488428;31;19990;-87
2022/12/01 00:32:04;;;;;;;;;;;;;;;9.23;44.25;99276.19;4488294;31;20244;-87
2022/12/01 00:34:30;;;;;;;;;;;;;;;9.17;44.46;99270.31;4502777;31;19983;-87
2022/12/01 00:36:55;;;;;;;;;;;;;;;8.99;44.41;99277.19;4502532;31;19971;-87
2022/12/01 00:39:20;;;;;;;;;;;;;;;9.03;43.87;99269.09;4502631;31;19979;-88
2022/12/01 00:41:45;;;;;;;;;;;;;;;9.00;43.30;99273.62;4488242;31;19997;-88
2022/12/01 00:44:11;;;;;;;;;;;;;;;8.95;43.81;99280.84;4502603;31;19983;-89
2022/12/01 00:46:36;;;;;;;;;;;;;;;8.90;43.88;99286.28;4488205;31;20078;-87
2022/12/01 00:49:01;;;;;;;;;;;;;;;8.89;43.86;99287.22;4502382;31;19971;-89
2022/12/01 00:51:26;;;;;;;;;;;;;;;8.85;43.93;99281.22;4502390;31;20007;-91
2022/12/01 00:53:52;;;;;;;;;;;;;;;8.83;43.97;99279.56;4488082;31;19991;-90
2022/12/01 00:56:17;;;;;;;;;;;;;;;8.77;44.15;99278.03;4474928;31;19983;-90
2022/12/01 00:58:42;;;;;;;;;;;;;;;8.78;44.07;99287.63;4502432;31;19981;-88
2022/12/01 01:01:07;;;;;;;;;;;;;;;8.69;44.32;99285.34;4488356;31;19979;-90
2022/12/01 01:03:33;;;;;;;;;;;;;;;8.63;44.42;99289.09;4502572;31;20065;-89
2022/12/01 01:06:05;;;;;;;;;;;;;;;8.60;44.51;99291.81;4502311;31;20273;-89
2022/12/01 01:08:30;;;;;;;;;;;;;;;8.28;45.00;99290.38;4502224;31;19986;-88
2022/12/01 01:10:57;;;;;;;;;;;;;;;8.36;45.16;99284.84;4503341;31;19971;-88
2022/12/01 01:13:22;;;;;;;;;;;;;;;8.44;45.29;99275.81;4489922;31;20365;-90
2022/12/01 01:15:55;;;;;;;;;;;;;;;8.19;45.66;99280.22;4504275;31;19980;-87
2022/12/01 01:18:21;;;;;;;;;;;;;;;8.34;45.18;99279.63;4504292;31;19986;-87
2022/12/01 01:20:53;;;;;;;;;;;;;;;8.34;44.95;99269.13;4503993;31;20047;-87
2022/12/01 01:23:18;;;;;;;;;;;;;;;8.40;44.87;99273.31;4489897;31;20019;-83
2022/12/01 01:25:43;;;;;;;;;;;;;;;8.44;44.69;99282.81;4504090;31;19982;-83
2022/12/01 01:28:09;;;;;;;;;;;;;;;8.42;44.86;99275.00;4489796;31;19972;-83
2022/12/01 01:30:37;;;;;;;;;;;;;;;8.42;44.59;99275.00;4504217;31;19985;-83
2022/12/01 01:33:02;;;;;;;;;;;;;;;8.43;44.49;99265.34;4504053;31;20015;-83
2022/12/01 01:35:28;;;;;;;;;;;;;;;8.43;44.49;99263.56;4489522;31;20004;-83
2022/12/01 01:37:53;;;;;;;;;;;;;;;8.43;44.52;99271.47;4476522;31;20015;-83
2022/12/01 01:40:18;;;;;;;;;;;;;;;8.43;44.51;99268.84;4504098;31;19983;-83
2022/12/01 01:42:43;;;;;;;;;;;;;;;8.42;44.79;99272.38;4504142;31;19994;-83
2022/12/01 01:45:25;;;;;;;;;;;;;;;8.17;45.24;99277.66;4503993;31;19963;-83
2022/12/01 01:47:50;;;;;;;;;;;;;;;8.18;44.96;99274.12;4489727;31;19982;-83
2022/12/01 01:50:17;;;;;;;;;;;;;;;8.22;44.92;99275.72;4503915;31;19971;-83
2022/12/01 01:52:44;;;;;;;;;;;;;;;8.19;44.95;99280.22;4489676;31;19987;-83
2022/12/01 01:55:09;;;;;;;;;;;;;;;8.19;44.95;99272.34;4504032;31;19971;-83
2022/12/01 01:57:34;;;;;;;;;;;;;;;8.19;44.90;99281.09;4489689;31;20023;-83
2022/12/01 02:00:07;;;;;;;;;;;;;;;8.14;44.75;99274.28;4503981;31;19985;-83
2022/12/01 02:02:39;;;;;;;;;;;;;;;8.12;44.85;99276.13;4503917;31;20062;-83
2022/12/01 02:05:09;;;;;;;;;;;;;;;8.09;45.01;99263.94;4490121;31;20368;-83
2022/12/01 02:07:35;;;;;;;;;;;;;;;8.06;44.97;99272.78;4476864;31;20098;-83
2022/12/01 02:10:00;;;;;;;;;;;;;;;8.03;45.03;99275.53;4489471;31;20058;-83
2022/12/01 02:12:28;;;;;;;;;;;;;;;7.99;45.31;99271.31;4503820;31;20269;-87
2022/12/01 02:14:53;;;;;;;;;;;;;;;7.98;45.40;99274.00;4503892;31;19982;-86
2022/12/01 02:17:21;;;;;;;;;;;;;;;7.94;45.59;99270.63;4503862;31;20243;-87
2022/12/01 02:20:22;;;;;;;;;;;;;;;7.97;45.66;99278.38;4489480;31;19975;-87
2022/12/01 02:23:06;;;;;;;;;;;;;;;7.97;45.71;99274.91;4438484;32;19988;-87
2022/12/01 02:25:40;;;;;;;;;;;;;;;7.96;45.95;99278.41;4439206;32;20016;-87
2022/12/01 02:28:24;;;;;;;;;;;;;;;7.94;46.04;99278.50;4426482;32;19981;-89
2022/12/01 02:30:53;;;;;;;;;;;;;;;7.93;46.07;99276.78;4439077;32;20059;-89
2022/12/01 02:33:20;;;;;;;;;;;;;;;7.86;46.30;99275.28;4426169;32;20068;-89
2022/12/01 02:35:48;;;;;;;;;;;;;;;7.82;46.67;99279.81;4426008;32;20371;-88
2022/12/01 02:38:13;;;;;;;;;;;;;;;7.05;48.11;99285.00;4438811;32;19981;-84
2022/12/01 02:40:38;;;;;;;;;;;;;;;7.48;47.06;99280.09;4438899;32;20363;-84
2022/12/01 02:43:07;;;;;;;;;;;;;;;7.57;46.63;99278.91;4438808;32;20053;-84
2022/12/01 02:45:32;;;;;;;;;;;;;;;7.61;46.37;99276.16;4438937;32;19983;-84
2022/12/01 02:47:58;;;;;;;;;;;;;;;7.61;46.31;99277.91;4438869;32;19996;-84
2022/12/01 02:50:24;;;;;;;;;;;;;;;7.61;46.23;99272.66;4425856;32;20189;-87
2022/12/01 02:52:49;;;;;;;;;;;;;;;7.64;46.04;99264.69;4413286;32;19997;-87
2022/12/01 02:55:14;;;;;;;;;;;;;;;7.66;46.44;99263.72;4426124;32;20430;-87
2022/12/01 02:57:40;;;;;;;;;;;;;;;7.65;46.35;99264.66;4494753;31;20025;-88
2022/12/01 03:00:05;;;;;;;;;;;;;;;7.64;46.36;99259.44;4489146;31;20002;-88
2022/12/01 03:02:43;;;;;;;;;;;;;;;7.64;46.27;99259.44;4503505;31;20023;-87
2022/12/01 03:05:11;;;;;;;;;;;;;;;7.65;46.12;99264.66;4503542;31;20024;-87
2022/12/01 03:07:49;;;;;;;;;;;;;;;7.65;46.04;99262.03;4503424;31;19967;-88
2022/12/01 03:10:17;;;;;;;;;;;;;;;7.67;46.22;99257.59;4503505;31;19976;-89
2022/12/01 03:13:00;;;;;;;;;;;;;;;7.65;46.01;99267.28;4488965;31;19995;-89
2022/12/01 03:15:25;;;;;;;;;;;;;;;7.65;46.02;99256.78;4503471;31;20058;-89
2022/12/01 03:17:53;;;;;;;;;;;;;;;7.70;46.16;99264.47;4503349;31;20299;-90
2022/12/01 03:20:46;;;;;;;;;;;;;;;7.65;46.29;99264.66;4489067;31;19984;-90
2022/12/01 03:23:12;;;;;;;;;;;;;;;7.61;46.23;99262.16;4486139;31;20030;-88
2022/12/01 03:25:38;;;;;;;;;;;;;;;7.58;46.29;99263.13;4503408;31;20347;-89
2022/12/01 03:28:04;;;;;;;;;;;;;;;7.58;46.25;99262.28;4503406;31;20331;-89
2022/12/01 03:30:30;;;;;;;;;;;;;;;7.59;46.34;99264.00;4489114;31;19979;-89
2022/12/01 03:32:57;;;;;;;;;;;;;;;7.57;46.23;99257.94;4488779;31;19991;-89
2022/12/01 03:35:25;;;;;;;;;;;;;;;7.56;46.17;99253.63;4488779;31;19986;-90
2022/12/01 03:37:54;;;;;;;;;;;;;;;7.57;46.29;99252.69;4475988;31;20282;-87
2022/12/01 03:40:20;;;;;;;;;;;;;;;7.56;46.37;99256.25;4503344;31;19990;-89
2022/12/01 03:42:50;;;;;;;;;;;;;;;7.57;46.39;99253.59;4488957;31;19992;-89
2022/12/01 03:45:17;;;;;;;;;;;;;;;7.55;46.38;99250.16;4503263;31;19967;-88
2022/12/01 03:47:42;;;;;;;;;;;;;;;7.51;46.35;99255.53;4488831;31;20320;-90
2022/12/01 03:50:10;;;;;;;;;;;;;;;7.43;46.30;99255.81;4488876;31;19979;-90
2022/12/01 03:53:04;;;;;;;;;;;;;;;7.48;46.04;99248.66;4488946;31;19986;-89
2022/12/01 03:55:30;;;;;;;;;;;;;;;7.21;46.66;99261.78;4489366;31;20368;-89
2022/12/01 03:58:07;;;;;;;;;;;;;;;7.39;46.64;99254.19;4488776;31;19971;-88
2022/12/01 04:00:32;;;;;;;;;;;;;;;7.44;46.51;99260.16;4488661;31;19984;-87
2022/12/01 04:02:58;;;;;;;;;;;;;;;7.49;46.49;99247.72;4488703;31;20001;-87
2022/12/01 04:05:24;;;;;;;;;;;;;;;7.58;46.55;99254.44;4488790;31;19975;-89
2022/12/01 04:07:49;;;;;;;;;;;;;;;7.60;46.36;99255.22;4502961;31;19967;-87
2022/12/01 04:10:15;;;;;;;;;;;;;;;7.54;45.93;99256.28;4502973;31;20082;-88
2022/12/01 04:12:40;;;;;;;;;;;;;;;7.60;45.73;99247.37;4488401;31;20036;-91
2022/12/01 04:15:07;;;;;;;;;;;;;;;7.65;45.48;99248.06;4502932;31;19971;-90
2022/12/01 04:17:32;;;;;;;;;;;;;;;7.67;45.43;99244.47;4488687;31;19976;-87
2022/12/01 04:19:57;;;;;;;;;;;;;;;7.68;45.33;99246.16;4488624;31;19979;-88
2022/12/01 04:22:23;;;;;;;;;;;;;;;7.67;45.56;99246.25;4502906;31;19999;-87
2022/12/01 04:24:48;;;;;;;;;;;;;;;7.65;45.48;99243.66;4502876;31;19972;-87
2022/12/01 04:27:14;;;;;;;;;;;;;;;7.60;45.27;99240.34;4488518;31;20037;-89
2022/12/01 04:29:39;;;;;;;;;;;;;;;7.62;45.30;99235.06;4502786;31;19971;-89
2022/12/01 04:32:04;;;;;;;;;;;;;;;7.65;45.38;99243.66;4502671;31;20008;-90
2022/12/01 04:34:29;;;;;;;;;;;;;;;7.60;45.36;99240.34;4488360;31;19985;-89
2022/12/01 04:36:55;;;;;;;;;;;;;;;7.55;45.12;99242.28;4502570;31;19978;-89
2022/12/01 04:39:20;;;;;;;;;;;;;;;7.58;45.43;99251.81;4502561;31;19991;-88
2022/12/01 04:41:45;;;;;;;;;;;;;;;7.55;45.40;99249.28;4502706;31;19976;-89
2022/12/01 04:44:11;;;;;;;;;;;;;;;7.57;45.50;99250.06;4502597;31;19986;-89
2022/12/01 04:46:36;;;;;;;;;;;;;;;7.57;45.59;99250.97;4507092;31;19990;-89
2022/12/01 04:49:01;;;;;;;;;;;;;;;7.56;45.66;99256.25;4480262;31;20038;-92
2022/12/01 04:51:27;;;;;;;;;;;;;;;7.51;45.77;99261.63;4507707;31;20026;-89
2022/12/01 04:53:52;;;;;;;;;;;;;;;7.49;45.82;99273.94;4507792;31;19995;-90
2022/12/01 04:56:17;;;;;;;;;;;;;;;7.47;45.90;99276.63;4507662;31;19968;-89
2022/12/01 04:58:43;;;;;;;;;;;;;;;7.45;46.11;99277.56;4507630;31;19964;-90
2022/12/01 05:01:09;;;;;;;;;;;;;;;7.42;46.08;99275.06;4493278;31;19987;-89
2022/12/01 05:03:38;;;;;;;;;;;;;;;7.40;46.24;99267.25;4493287;31;19975;-87
2022/12/01 05:06:04;;;;;;;;;;;;;;;7.38;45.94;99270.81;4493223;31;20357;-87
2022/12/01 05:08:30;;;;;;;;;;;;;;;7.40;45.99;99266.41;4493120;31;20291;-86
2022/12/01 05:10:55;;;;;;;;;;;;;;;7.38;46.06;99270.81;4507429;31;20010;-89
2022/12/01 05:13:21;;;;;;;;;;;;;;;7.35;46.15;99274.41;4507408;31;19982;-89
2022/12/01 05:15:46;;;;;;;;;;;;;;;7.31;46.12;99261.47;4493029;31;19971;-87
2022/12/01 05:18:11;;;;;;;;;;;;;;;7.32;46.22;99265.78;4507402;31;19972;-87
2022/12/01 05:23:20;;;;;;;;;;;;;;;7.34;46.34;99259.59;4495246;31;20254;-87
2022/12/01 05:25:45;;;;;;;;;;;;;;;7.34;46.26;99267.47;4507234;31;19979;-87
2022/12/01 05:28:11;;;;;;;;;;;;;;;7.33;46.26;99267.53;4507235;31;20307;-86
2022/12/01 05:30:36;;;;;;;;;;;;;;;7.31;46.31;99261.47;4492851;31;19991;-87
2022/12/01 05:33:02;;;;;;;;;;;;;;;7.33;46.41;99265.75;4504560;31;79722;-87
2022/12/01 05:35:27;;;;;;;;;;;;;;;7.35;46.42;99265.69;4506922;31;19986;-85
2022/12/01 05:37:52;;;;;;;;;;;;;;;7.34;46.27;99261.34;4492846;31;19976;-85
2022/12/01 05:40:18;;;;;;;;;;;;;;;7.41;46.30;99268.09;4507010;31;19971;-84
2022/12/01 05:42:43;;;;;;;;;;;;;;;7.38;46.27;99271.69;4507042;31;19977;-84
2022/12/01 05:45:08;;;;;;;;;;;;;;;7.38;46.33;99257.72;4507007;31;19971;-88
2022/12/01 05:47:33;;;;;;;;;;;;;;;7.28;46.26;99267.66;4492427;31;19993;-86
2022/12/01 05:49:59;;;;;;;;;;;;;;;7.36;46.00;99262.16;4506862;31;20263;-87
2022/12/01 05:52:24;;;;;;;;;;;;;;;7.42;46.08;99257.56;4506899;31;19971;-87
2022/12/01 05:54:49;;;;;;;;;;;;;;;7.25;46.36;99259.91;4506758;31;19998;-87
2022/12/01 05:57:14;;;;;;;;;;;;;;;7.42;45.93;99262.81;4489894;31;20009;-87
2022/12/01 05:59:40;;;;;;;;;;;;;;;7.42;46.17;99269.84;4489618;31;19983;-85
2022/12/01 06:02:05;;;;;;;;;;;;;;;7.46;46.14;99268.81;4503771;31;20380;-87
2022/12/01 06:04:30;;;;;;;;;;;;;;;7.22;46.48;99267.88;4503900;31;19995;-88
2022/12/01 06:06:55;;;;;;;;;;;;;;;7.46;46.38;99266.19;4503629;31;19980;-87
2022/12/01 06:09:20;;;;;;;;;;;;;;;7.48;46.19;99272.25;4503902;31;19990;-87
2022/12/01 06:11:46;;;;;;;;;;;;;;;7.52;46.22;99276.47;4503717;31;19968;-87
2022/12/01 06:14:11;;;;;;;;;;;;;;;7.41;47.09;99278.59;4503737;31;19968;-87
2022/12/01 06:16:36;;;;;;;;;;;;;;;7.40;47.67;99279.53;4489471;31;20060;-87
2022/12/01 06:19:01;;;;;;;;;;;;;;;7.46;47.46;99284.56;4503629;31;19994;-87
2022/12/01 06:21:27;;;;;;;;;;;;;;;7.51;47.24;99281.75;4503677;31;20003;-87
2022/12/01 06:23:52;;;;;;;;;;;;;;;7.50;47.03;99287.94;4503640;31;20300;-87
2022/12/01 06:26:17;;;;;;;;;;;;;;;7.50;47.21;99290.56;4503685;31;19967;-87
2022/12/01 06:28:42;;;;;;;;;;;;;;;7.49;47.20;99289.66;4503852;31;19990;-90
2022/12/01 06:31:08;;;;;;;;;;;;;;;7.49;47.25;99300.16;4503776;31;19978;-88
2022/12/01 06:33:33;;;;;;;;;;;;;;;7.49;47.24;99294.91;4503547;31;19989;-86
2022/12/01 06:35:59;;;;;;;;;;;;;;;7.51;47.17;99285.22;4503463;31;20264;-86
2022/12/01 06:38:24;;;;;;;;;;;;;;;7.52;47.18;99286.09;4489464;31;20289;-89
2022/12/01 06:40:50;;;;;;;;;;;;;;;7.56;46.94;99292.97;4489339;31;19987;-89
2022/12/01 06:43:15;;;;;;;;;;;;;;;7.61;46.84;99288.38;4489286;31;20262;-90
2022/12/01 06:45:40;;;;;;;;;;;;;;;7.66;46.95;99281.22;4503683;31;19967;-89
2022/12/01 06:48:05;;;;;;;;;;;;;;;7.70;46.99;99281.97;4503633;31;20022;-85
2022/12/01 06:50:31;;;;;;;;;;;;;;;7.74;46.83;99283.59;4503594;31;20305;-86
2022/12/01 06:52:56;;;;;;;;;;;;;;;7.75;46.92;99280.91;4503517;31;20243;-86
2022/12/01 06:55:21;;;;;;;;;;;;;;;7.82;46.85;99284.16;4503572;31;20011;-86
2022/12/01 06:57:46;;;;;;;;;;;;;;;7.79;46.63;99286.91;4489099;31;20064;-86
2022/12/01 07:00:12;;;;;;;;;;;;;;;7.82;46.54;99277.19;4489141;31;19968;-86
2022/12/01 07:02:38;;;;;;;;;;;;;;;7.85;46.57;99284.91;4503398;31;20019;-86
2022/12/01 07:05:03;;;;;;;;;;;;;;;7.92;46.63;99282.06;4502953;31;20564;-84
2022/12/01 07:07:28;;;;;;;;;;;;;;;7.95;46.67;99284.59;4466553;31;20021;-85
2022/12/01 07:09:53;;;;;;;;;;;;;;;7.99;46.65;99283.56;4495138;31;20389;-84
2022/12/01 07:12:19;;;;;;;;;;;;;;;7.67;47.11;99289.06;4487568;32;19994;-85
2022/12/01 07:14:44;;;;;;;;;;;;;;;7.95;46.38;99289.84;4487413;32;19975;-86
2022/12/01 07:17:09;;;;;;;;;;;;;;;7.98;46.08;99285.34;4473222;32;19998;-86
2022/12/01 07:19:35;;;;;;;;;;;;;;;8.02;46.07;99286.94;4487606;32;20330;-86
2022/12/01 07:22:00;;;;;;;;;;;;;;;8.10;46.05;99285.81;4487627;32;19963;-88
2022/12/01 07:24:25;;;;;;;;;;;;;;;8.17;46.05;99287.28;4487442;32;20240;-93
2022/12/01 07:26:50;;;;;;;;;;;;;;;8.19;45.98;99290.72;4487584;32;20326;-88
2022/12/01 07:29:16;;;;;;;;;;;;;;;8.26;45.80;99292.19;4487465;32;19988;-83
2022/12/01 07:31:41;;;;;;;;;;;;;;;8.31;45.57;99285.03;4487550;32;20318;-85
2022/12/01 07:34:09;;;;;;;;;;;;;;;8.40;45.44;99286.44;4487576;32;20019;-83
2022/12/01 07:36:34;;;;;;;;;;;;;;;8.43;45.21;99289.84;4491158;31;20014;-82
2022/12/01 07:39:03;;;;;;;;;;;;;;;8.40;45.15;99289.94;4480444;31;19979;-82
2022/12/01 07:41:28;;;;;;;;;;;;;;;8.48;45.13;99291.44;4479390;31;20312;-84
2022/12/01 07:43:53;;;;;;;;;;;;;;;8.52;45.20;99291.28;4495264;31;20020;-84
2022/12/01 07:46:20;;;;;;;;;;;;;;;8.53;45.41;99286.88;4494709;31;19975;-84
2022/12/01 07:48:45;;;;;;;;;;;;;;;8.34;46.23;99286.66;4493979;31;19975;-84
2022/12/01 07:51:15;;;;;;;;;;;;;;;8.52;45.90;99287.75;4478945;32;20303;-83
2022/12/01 07:53:40;;;;;;;;;;;;;;;8.54;45.15;99288.59;4480712;31;19980;-83
2022/12/01 07:56:06;;;;;;;;;;;;;;;8.56;44.83;99289.38;4498382;31;20000;-83
2022/12/01 07:58:31;;;;;;;;;;;;;;;8.53;44.65;99292.97;4475464;31;20021;-83
2022/12/01 08:00:57;;;;;;;;;;;;;;;8.62;44.86;99294.41;4503088;31;19971;-83
2022/12/01 08:03:22;;;;;;;;;;;;;;;8.73;44.40;99300.09;4503023;31;20035;-84
2022/12/01 08:05:55;;;;;;;;;;;;;;;8.78;44.33;99294.66;4482929;32;19992;-84
2022/12/01 08:08:20;;;;;;;;;;;;;;;8.84;44.36;99297.03;4473097;32;19991;-84
2022/12/01 08:10:45;;;;;;;;;;;;;;;8.87;44.21;99296.09;4487215;32;19982;-83
2022/12/01 08:13:13;;;;;;;;;;;;;;;8.92;44.53;99299.34;4487083;32;19986;-84
2022/12/01 08:15:39;;;;;;;;;;;;;;;8.94;45.11;99294.91;4487221;32;19993;-84
2022/12/01 08:18:04;;;;;;;;;;;;;;;8.75;45.08;99300.91;4472981;32;19972;-85
2022/12/01 08:20:29;;;;;;;;;;;;;;;8.94;44.12;99292.28;4486085;32;19983;-87
2022/12/01 08:22:54;;;;;;;;;;;;;;;9.01;44.12;99291.13;4487105;32;19994;-85
2022/12/01 08:25:20;;;;;;;;;;;;;;;9.06;44.44;99294.44;4487139;32;19982;-86
2022/12/01 08:27:45;;;;;;;;;;;;;;;8.97;44.08;99294.78;4487091;32;19968;-84
2022/12/01 08:30:10;;;;;;;;;;;;;;;9.02;43.35;99284.94;4486846;32;20017;-84
2022/12/01 08:32:36;;;;;;;;;;;;;;;9.00;43.47;99284.13;4485125;32;19983;-84
2022/12/01 08:35:01;;;;;;;;;;;;;;;8.74;44.08;99293.91;4459129;32;20312;-84
2022/12/01 08:37:29;;;;;;;;;;;;;;;8.57;44.21;99294.56;4472658;32;19975;-84
2022/12/01 08:39:54;;;;;;;;;;;;;;;8.29;44.84;99302.59;4486787;32;20002;-85
2022/12/01 08:42:20;;;;;;;;;;;;;;;8.79;44.13;99302.47;4486471;32;19980;-84
2022/12/01 08:44:45;;;;;;;;;;;;;;;8.88;43.91;99308.28;4486915;32;19989;-84
2022/12/01 08:47:11;;;;;;;;;;;;;;;9.05;43.36;99298.81;4486662;32;20280;-85
2022/12/01 08:49:36;;;;;;;;;;;;;;;9.20;43.54;99301.75;4472461;32;20059;-85
2022/12/01 08:52:01;;;;;;;;;;;;;;;9.25;43.72;99311.16;4486624;32;20288;-85
2022/12/01 08:54:26;;;;;;;;;;;;;;;9.27;43.11;99305.81;4486639;32;19980;-84
2022/12/01 08:56:51;;;;;;;;;;;;;;;9.27;43.29;99304.97;4486707;32;19972;-84
2022/12/01 08:59:17;;;;;;;;;;;;;;;9.04;43.11;99306.78;4472170;32;20022;-84
2022/12/01 09:01:51;;;;;;;;;;;;;;;9.03;43.35;99303.28;4486642;32;20232;-84
2022/12/01 09:04:16;;;;;;;;;;;;;;;8.94;43.45;99315.91;4486541;32;20007;-84
2022/12/01 09:06:43;;;;;;;;;;;;;;;8.94;43.07;99302.78;4486449;32;19971;-85
2022/12/01 09:09:11;;;;;;;;;;;;;;;9.14;42.80;99308.09;4472208;32;20041;-85
2022/12/01 09:11:37;;;;;;;;;;;;;;;9.12;42.70;99307.31;4472469;32;20344;-84
2022/12/01 09:14:02;;;;;;;;;;;;;;;9.26;42.53;99304.12;4486563;32;19972;-85
2022/12/01 09:16:27;;;;;;;;;;;;;;;9.40;42.57;99300.91;4472853;32;19975;-84
2022/12/01 09:18:53;;;;;;;;;;;;;;;9.42;42.33;99301.72;4487098;32;20011;-85
2022/12/01 09:21:19;;;;;;;;;;;;;;;9.50;42.72;99301.38;4459511;32;20260;-85
2022/12/01 09:23:45;;;;;;;;;;;;;;;9.54;42.88;99295.97;4472319;32;19988;-85
2022/12/01 09:26:10;;;;;;;;;;;;;;;9.54;42.78;99295.06;4486442;32;19967;-85
2022/12/01 09:28:36;;;;;;;;;;;;;;;9.65;42.59;99295.47;4486300;32;20235;-85
2022/12/01 09:31:10;;;;;;;;;;;;;;;9.69;42.08;99286.53;4472507;32;19999;-85
2022/12/01 09:33:35;;;;;;;;;;;;;;;9.73;41.84;99290.75;4474276;32;19984;-85
2022/12/01 09:36:01;;;;;;;;;;;;;;;9.46;42.39;99292.75;4488328;32;19980;-85
2022/12/01 09:38:30;;;;;;;;;;;;;;;9.41;41.84;99286.88;4488591;32;19967;-85
2022/12/01 09:40:55;;;;;;;;;;;;;;;9.35;42.20;99280.09;4488426;32;20000;-85
2022/12/01 09:43:21;;;;;;;;;;;;;;;9.52;41.65;99286.41;4474440;32;19991;-85
2022/12/01 09:45:48;;;;;;;;;;;;;;;9.41;42.13;99285.09;4474278;32;20078;-85
2022/12/01 09:48:28;;;;;;;;;;;;;;;9.51;41.85;99282.91;4474278;32;19976;-85
2022/12/01 09:50:53;;;;;;;;;;;;;;;9.65;41.97;99279.69;4474197;32;20003;-85
2022/12/01 09:53:20;;;;;;;;;;;;;;;9.43;42.08;99285.88;4474042;32;20277;-85
2022/12/01 09:55:45;;;;;;;;;;;;;;;9.49;42.05;99278.66;4474317;32;20088;-85
2022/12/01 09:58:17;;;;;;;;;;;;;;;9.54;41.95;99276.66;4473991;32;19988;-85
2022/12/01 10:00:43;;;;;;;;;;;;;;;9.63;41.70;99276.28;4474237;32;20586;-85
2022/12/01 10:03:08;;;;;;;;;;;;;;;9.58;41.89;99272.97;4474126;32;19976;-85
2022/12/01 10:05:54;;;;;;;;;;;;;;;9.54;41.72;99272.28;4488095;32;20029;-85
2022/12/01 10:08:20;;;;;;;;;;;;;;;9.18;43.15;99272.03;4487837;32;19964;-85
2022/12/01 10:10:46;;;;;;;;;;;;;;;9.64;41.93;99262.22;4488362;32;19990;-86
2022/12/01 10:13:18;;;;;;;;;;;;;;;9.70;42.08;99266.38;4488355;32;19972;-85
2022/12/01 10:15:53;;;;;;;;;;;;;;;9.72;41.76;99265.38;4473996;32;19979;-85
2022/12/01 10:18:27;;;;;;;;;;;;;;;9.78;41.69;99256.34;4488082;32;19968;-85
2022/12/01 10:21:11;;;;;;;;;;;;;;;9.86;42.02;99250.75;4488103;32;20059;-85
2022/12/01 10:23:38;;;;;;;;;;;;;;;9.93;42.31;99263.56;4460730;32;19988;-85
2022/12/01 10:26:12;;;;;;;;;;;;;;;9.99;42.22;99263.28;4488016;32;20007;-84
2022/12/01 10:28:57;;;;;;;;;;;;;;;10.02;41.56;99257.91;4474061;32;20279;-85
2022/12/01 10:31:38;;;;;;;;;;;;;;;10.03;41.94;99261.37;4488202;32;19980;-85
2022/12/01 10:34:29;;;;;;;;;;;;;;;9.89;42.32;99250.59;4473837;32;20330;-85
2022/12/01 10:36:55;;;;;;;;;;;;;;;10.03;41.65;99246.44;4484759;32;19971;-85
2022/12/01 10:39:23;;;;;;;;;;;;;;;10.09;41.59;99242.69;4473794;32;20344;-85
2022/12/01 10:41:48;;;;;;;;;;;;;;;10.14;41.43;99242.47;4487993;32;19994;-85
2022/12/01 10:44:14;;;;;;;;;;;;;;;9.84;42.27;99249.03;4472999;32;20003;-85
2022/12/01 10:46:40;;;;;;;;;;;;;;;9.90;41.77;99245.28;4473498;32;19976;-85
2022/12/01 10:49:10;;;;;;;;;;;;;;;10.09;41.41;99239.19;4473439;32;19988;-85
2022/12/01 10:52:04;;;;;;;;;;;;;;;9.97;41.44;99236.19;4473401;32;20004;-85
2022/12/01 10:54:33;;;;;;;;;;;;;;;10.11;41.49;99234.72;4460112;32;20071;-85
2022/12/01 10:56:58;;;;;;;;;;;;;;;9.95;41.56;99243.31;4487709;32;19984;-85
2022/12/01 10:59:41;;;;;;;;;;;;;;;10.17;41.61;99234.44;4487551;32;19964;-85
2022/12/01 11:02:13;;;;;;;;;;;;;;;10.24;41.40;99230.59;4487870;32;19975;-85
2022/12/01 11:04:43;;;;;;;;;;;;;;;10.35;41.31;99231.00;4487716;32;19999;-85
2022/12/01 11:07:14;;;;;;;;;;;;;;;10.30;41.42;99232.09;4474054;32;19975;-85
2022/12/01 11:09:39;;;;;;;;;;;;;;;10.37;41.71;99237.03;4460254;32;20338;-85
2022/12/01 11:12:04;;;;;;;;;;;;;;;10.44;41.26;99227.06;4487545;32;19979;-85
2022/12/01 11:14:29;;;;;;;;;;;;;;;10.38;41.16;99225.56;4473437;32;19993;-85
2022/12/01 11:16:55;;;;;;;;;;;;;;;10.37;41.09;99218.59;4487674;32;19996;-85
2022/12/01 11:19:28;;;;;;;;;;;;;;;10.15;41.80;99223.13;4473337;32;19983;-85
2022/12/01 11:21:57;;;;;;;;;;;;;;;10.28;41.79;99219.00;4487438;32;19988;-85
2022/12/01 11:24:26;;;;;;;;;;;;;;;10.38;41.65;99212.41;4473404;32;20411;-85
2022/12/01 11:26:51;;;;;;;;;;;;;;;10.52;42.11;99210.91;4487461;32;19995;-85
2022/12/01 11:29:23;;;;;;;;;;;;;;;10.08;42.30;99208.53;4473347;32;20001;-85
2022/12/01 11:31:48;;;;;;;;;;;;;;;10.24;41.86;99201.63;4473119;32;20036;-85
2022/12/01 11:34:16;;;;;;;;;;;;;;;10.41;41.46;99204.38;4473338;32;19987;-85
2022/12/01 11:36:43;;;;;;;;;;;;;;;10.42;41.40;99205.22;4487475;32;19976;-85
2022/12/01 11:39:20;;;;;;;;;;;;;;;10.49;41.19;99198.72;4473180;32;20308;-85
2022/12/01 11:41:45;;;;;;;;;;;;;;;10.56;41.21;99202.75;4473210;32;20379;-84
2022/12/01 11:44:17;;;;;;;;;;;;;;;10.58;40.88;99200.91;4487406;32;19980;-84
2022/12/01 11:46:43;;;;;;;;;;;;;;;10.61;40.87;99197.28;4473339;32;20048;-84
2022/12/01 11:49:20;;;;;;;;;;;;;;;9.79;42.75;99201.03;4473170;32;20360;-84
2022/12/01 11:51:45;;;;;;;;;;;;;;;9.78;42.95;99199.31;4460045;32;20293;-84
2022/12/01 11:54:15;;;;;;;;;;;;;;;10.10;42.20;99202.28;4486823;32;19972;-84
2022/12/01 11:56:41;;;;;;;;;;;;;;;9.97;42.58;99201.97;4459447;32;20039;-84
2022/12/01 11:59:09;;;;;;;;;;;;;;;10.04;42.26;99199.91;4473186;32;19982;-84
2022/12/01 12:01:39;;;;;;;;;;;;;;;10.26;42.25;99198.91;4487207;32;20023;-84
2022/12/01 12:04:23;;;;;;;;;;;;;;;10.36;42.01;99202.88;4473190;32;19980;-85
2022/12/01 12:06:53;;;;;;;;;;;;;;;10.38;41.98;99188.69;4487239;32;19990;-85
2022/12/01 12:09:42;;;;;;;;;;;;;;;10.43;42.26;99194.59;4472915;32;19979;-85
2022/12/01 12:12:19;;;;;;;;;;;;;;;10.37;41.96;99189.62;4478665;32;19980;-85
2022/12/01 12:14:50;;;;;;;;;;;;;;;10.30;42.07;99190.84;4487222;32;20574;-84
2022/12/01 12:17:34;;;;;;;;;;;;;;;10.43;41.94;99194.59;4487165;32;20090;-85
2022/12/01 12:19:59;;;;;;;;;;;;;;;10.42;41.66;99198.16;4487216;32;19960;-85
2022/12/01 12:22:27;;;;;;;;;;;;;;;10.36;41.68;99189.72;4487030;32;19990;-85
2022/12/01 12:25:12;;;;;;;;;;;;;;;10.24;42.04;99194.59;4472829;32;20044;-85
2022/12/01 12:27:57;;;;;;;;;;;;;;;10.43;42.05;99188.50;4487679;32;20027;-84
2022/12/01 12:30:25;;;;;;;;;;;;;;;10.43;42.07;99193.75;4473370;32;20334;-84
2022/12/01 12:32:56;;;;;;;;;;;;;;;10.54;41.54;99187.97;4473171;32;19988;-84
2022/12/01 12:35:27;;;;;;;;;;;;;;;10.20;42.12;99184.28;4486774;32;19975;-84
2022/12/01 12:38:01;;;;;;;;;;;;;;;9.64;43.08;99196.47;4487100;32;20039;-84
2022/12/01 12:40:35;;;;;;;;;;;;;;;10.21;42.19;99189.44;4487010;32;19982;-85
2022/12/01 12:43:13;;;;;;;;;;;;;;;10.36;42.02;99192.34;4486851;32;20031;-84
2022/12/01 12:45:44;;;;;;;;;;;;;;;10.24;42.30;99199.00;4459535;32;19992;-84
2022/12/01 12:48:10;;;;;;;;;;;;;;;10.23;42.12;99192.00;4486726;32;19991;-84
2022/12/01 12:51:01;;;;;;;;;;;;;;;10.40;41.75;99191.25;4472355;32;20002;-84
2022/12/01 12:53:28;;;;;;;;;;;;;;;9.83;43.35;99183.31;4422189;32;19997;-84
2022/12/01 12:55:55;;;;;;;;;;;;;;;9.69;43.31;99180.47;4396493;32;20289;-84
2022/12/01 12:58:22;;;;;;;;;;;;;;;10.11;42.78;99192.59;4435137;32;20008;-84
2022/12/01 13:00:53;;;;;;;;;;;;;;;10.26;42.49;99185.75;4409390;32;20063;-84
2022/12/01 13:03:20;;;;;;;;;;;;;;;9.76;43.21;99189.78;4409551;32;20008;-84